Nyk Constellation — V7NP4 — position and weather

sailwx.info

Track history (hours):
 
Tides and Currents Weather Stations Pressure Air Temp Water Temp Dewpoint Dewpoint Depression Visibility Wind Speed Wind Dir Waves Ship Positions

Nyk Constellation

Last reported at 2017-May-20 18:46 UTC. Time now 2017-May-24 15:39 UTC.
Position N 36°31' E 141°17'.

Length 294 m; draft 11.2 m.

Type: Cargo ship. MMSI: 538002992.

Date/timePositionNaut miles runAvg speedWind from/ knotsBaromVisibWave heightAir tempDewpointWater temp
2017-May-20 18:46N 36°31' E 141°17'621.4
2017-May-20 18:30N 36°26' E 141°17'1121.1
2017-May-20 18:00N 36°15' E 141°16'3920.6
2017-May-20 16:07N 35°37' E 141°10'221.3
2017-May-20 16:00N 35°35' E 141°08'1821.4
2017-May-20 15:10N 35°22' E 140°53'421.6
2017-May-20 15:00N 35°19' E 140°50'1121.6
2017-May-20 14:30N 35°12' E 140°40'2421.4
2017-May-20 13:23N 34°55' E 140°20'921.5
2017-May-20 12:57N 34°51' E 140°10'1621.8
2017-May-20 12:13N 34°48' E 139°50'721.1
2017-May-20 11:54N 34°51' E 139°43'1020.6
2017-May-20 11:25N 35°01' E 139°44'916.8
2017-May-20 10:54N 35°10' E 139°46'410.3
2017-May-20 10:30N 35°14' E 139°46'612.2
2017-May-20 10:01N 35°19' E 139°43'612.0
2017-May-20 09:30N 35°25' E 139°44'815.2
2017-May-20 09:01N 35°30' E 139°51'611.2
2017-May-20 08:31N 35°35' E 139°48'1 2.5
2017-May-20 07:59N 35°36' E 139°46'0 0.0
2017-May-20 07:29N 35°36' E 139°46'0 0.0
2017-May-20 06:59N 35°36' E 139°46'0 0.0
2017-May-20 06:29N 35°36' E 139°46'0 0.0
2017-May-20 05:59N 35°36' E 139°46'0 0.0
2017-May-20 05:29N 35°36' E 139°46'0 0.0
2017-May-20 04:56N 35°36' E 139°46'0 0.0
2017-May-20 04:26N 35°36' E 139°46'0 0.0
2017-May-20 03:59N 35°36' E 139°46'0 0.0
2017-May-20 03:29N 35°36' E 139°46'0 0.0
2017-May-20 02:59N 35°36' E 139°46'0 0.0
2017-May-20 02:29N 35°36' E 139°46'0 0.0
2017-May-20 01:59N 35°36' E 139°46'0 0.0
2017-May-20 01:29N 35°36' E 139°46'0 0.0
2017-May-20 00:59N 35°36' E 139°46'0 0.0
2017-May-20 00:26N 35°36' E 139°46'0 0.0
2017-May-19 23:56N 35°36' E 139°46'0 0.0
2017-May-19 23:29N 35°36' E 139°46'0 0.6
2017-May-19 23:00N 35°36' E 139°47'4 7.3
2017-May-19 22:30N 35°33' E 139°50'510.0
2017-May-19 22:00N 35°28' E 139°51'612.7
2017-May-19 21:30N 35°24' E 139°46'612.0
2017-May-19 21:00N 35°18' E 139°45'612.4
2017-May-19 20:30N 35°12' E 139°47'612.3
2017-May-19 20:00N 35°05' E 139°46'613.0
2017-May-19 19:31N 35°00' E 139°41'612.2
2017-May-19 19:00N 34°57' E 139°34'239 6.0
2017-May-18 02:58N 33°49' E 134°57'4 8.8
2017-May-18 02:29N 33°53' E 134°57'5 8.6
2017-May-18 01:55N 33°58' E 134°57'4 8.6
2017-May-18 01:30N 34°01' E 134°57'4 8.5
2017-May-18 00:59N 34°06' E 134°57'4 9.0
2017-May-18 00:30N 34°10' E 134°58'611.1
2017-May-18 00:00N 34°16' E 134°59'1018.0
2017-May-17 23:28N 34°24' E 135°04'919.2
2017-May-17 23:01N 34°31' E 135°11'815.2
2017-May-17 22:31N 34°36' E 135°18'5 9.4
2017-May-17 22:00N 34°41' E 135°18'0 0.6
2017-May-17 21:29N 34°41' E 135°17'0 0.0
2017-May-17 20:59N 34°41' E 135°17'0 0.0
2017-May-17 20:29N 34°41' E 135°17'0 0.0
2017-May-17 19:59N 34°41' E 135°17'0 0.0
2017-May-17 19:29N 34°41' E 135°17'0 0.0
2017-May-17 18:59N 34°41' E 135°17'0 0.0
2017-May-17 18:23N 34°41' E 135°17'0 0.0
2017-May-17 17:59N 34°41' E 135°17'0 0.0
2017-May-17 17:29N 34°41' E 135°17'0 0.0
2017-May-17 16:59N 34°41' E 135°17'0 0.0
2017-May-17 16:29N 34°41' E 135°17'0 0.0
2017-May-17 15:59N 34°41' E 135°17'0 0.0
2017-May-17 15:29N 34°41' E 135°17'0 0.0
2017-May-17 14:59N 34°41' E 135°17'0 0.0
2017-May-17 14:29N 34°41' E 135°17'0 0.0
2017-May-17 13:29N 34°41' E 135°17'0 0.0
2017-May-17 12:59N 34°41' E 135°17'0 0.0
2017-May-17 12:29N 34°41' E 135°17'0 0.0
2017-May-17 11:59N 34°41' E 135°17'0 0.0
2017-May-17 11:29N 34°41' E 135°17'0 0.0
2017-May-17 10:59N 34°41' E 135°17'0 0.0
2017-May-17 10:17N 34°41' E 135°17'0 0.0
2017-May-17 09:53N 34°41' E 135°17'0 0.0
2017-May-17 09:29N 34°41' E 135°17'0 0.0
2017-May-17 08:53N 34°41' E 135°17'0 0.0
2017-May-17 08:29N 34°41' E 135°17'0 0.0
2017-May-17 07:53N 34°41' E 135°17'0 0.0
2017-May-17 07:23N 34°41' E 135°17'0 0.0
2017-May-17 06:53N 34°41' E 135°17'0 0.0
2017-May-17 06:29N 34°41' E 135°17'0 0.0
2017-May-17 05:59N 34°41' E 135°17'0 0.0
2017-May-17 05:23N 34°41' E 135°17'0 0.0
2017-May-17 04:59N 34°41' E 135°17'0 0.0
2017-May-17 04:29N 34°41' E 135°17'0 0.0
2017-May-17 03:53N 34°41' E 135°17'0 0.0
2017-May-17 03:29N 34°41' E 135°17'0 0.0
2017-May-17 02:53N 34°41' E 135°17'0 0.0
2017-May-17 02:29N 34°41' E 135°17'0 0.0
2017-May-17 01:59N 34°41' E 135°17'0 0.0
2017-May-17 01:29N 34°41' E 135°17'0 0.0
2017-May-17 00:59N 34°41' E 135°17'0 0.0
2017-May-17 00:29N 34°41' E 135°17'0 0.0
2017-May-16 23:59N 34°41' E 135°17'0 0.0
2017-May-16 23:29N 34°41' E 135°17'0 0.0
2017-May-16 22:59N 34°41' E 135°17'0 0.0
2017-May-16 22:29N 34°41' E 135°17'0 0.0
2017-May-16 21:53N 34°41' E 135°17'0 0.0
2017-May-16 21:29N 34°41' E 135°17'0 0.0
2017-May-16 20:47N 34°41' E 135°17'0 0.0
2017-May-16 20:29N 34°41' E 135°17'0 0.0
2017-May-16 19:59N 34°41' E 135°17'0 0.0
2017-May-16 19:29N 34°41' E 135°17'0 0.0
2017-May-16 18:47N 34°41' E 135°17'0 0.0
2017-May-16 18:29N 34°41' E 135°17'0 0.0
2017-May-16 17:59N 34°41' E 135°17'0 0.0
2017-May-16 17:29N 34°41' E 135°17'0 0.0
2017-May-16 16:59N 34°41' E 135°17'0 0.0
2017-May-16 16:29N 34°41' E 135°17'0 0.0
2017-May-16 15:59N 34°41' E 135°17'0 0.0
2017-May-16 15:29N 34°41' E 135°17'0 0.0
2017-May-16 14:59N 34°41' E 135°17'0 0.0
2017-May-16 14:29N 34°41' E 135°17'0 0.0
2017-May-16 13:29N 34°41' E 135°17'0 0.0
2017-May-16 12:59N 34°41' E 135°17'0 0.0
2017-May-16 12:23N 34°41' E 135°17'0 0.0
2017-May-16 11:53N 34°41' E 135°17'0 0.0
2017-May-16 11:29N 34°41' E 135°17'0 0.0
2017-May-16 10:47N 34°41' E 135°17'0 0.0
2017-May-16 10:29N 34°41' E 135°17'0 0.0
2017-May-16 09:59N 34°41' E 135°17'0 0.0
2017-May-16 09:29N 34°41' E 135°17'0 0.0
2017-May-16 08:59N 34°41' E 135°17'0 0.0
2017-May-16 08:29N 34°41' E 135°17'0 0.0
2017-May-16 07:53N 34°41' E 135°17'0 0.0
2017-May-16 07:29N 34°41' E 135°17'0 0.0
2017-May-16 06:59N 34°41' E 135°17'0 0.0
2017-May-16 06:23N 34°41' E 135°17'0 0.0
2017-May-16 05:53N 34°41' E 135°17'0 0.0
2017-May-16 05:23N 34°41' E 135°17'0 0.0
2017-May-16 04:59N 34°41' E 135°17'0 0.0
2017-May-16 04:29N 34°41' E 135°17'0 0.0
2017-May-16 03:59N 34°41' E 135°17'0 0.0
2017-May-16 03:29N 34°41' E 135°17'0 0.0
2017-May-16 02:59N 34°41' E 135°17'0 0.0
2017-May-16 02:29N 34°41' E 135°17'0 0.0
2017-May-16 01:53N 34°41' E 135°17'0 0.0
2017-May-16 01:29N 34°41' E 135°17'0 0.0
2017-May-16 00:59N 34°41' E 135°17'0 0.1
2017-May-16 00:27N 34°41' E 135°17'2 4.4
2017-May-16 00:00N 34°39' E 135°18'612.6
2017-May-15 23:30N 34°34' E 135°15'917.9
2017-May-15 23:01N 34°27' E 135°08'917.9
2017-May-15 22:30N 34°20' E 135°01'715.0
2017-May-15 22:00N 34°13' E 134°59'510.5
2017-May-15 21:30N 34°07' E 134°59'510.3
2017-May-15 21:00N 34°02' E 134°58'221 6.6
2017-May-14 11:19N 34°53' E 139°19'619.1
2017-May-14 11:00N 34°57' E 139°26'918.7
2017-May-14 10:30N 35°01' E 139°36'917.6
2017-May-14 10:00N 35°07' E 139°44'612.3
2017-May-14 09:31N 35°13' E 139°46'610.9
2017-May-14 09:00N 35°18' E 139°44'612.8
2017-May-14 08:30N 35°24' E 139°43'816.3
2017-May-14 08:00N 35°30' E 139°51'611.6
2017-May-14 07:30N 35°35' E 139°48'1 2.6
2017-May-14 06:58N 35°36' E 139°46'0 0.0
2017-May-14 06:22N 35°36' E 139°46'0 0.0
2017-May-14 05:55N 35°36' E 139°46'0 0.0
2017-May-14 05:28N 35°36' E 139°46'0 0.0
2017-May-14 04:58N 35°36' E 139°46'0 0.0
2017-May-14 04:25N 35°36' E 139°46'0 0.0
2017-May-14 03:52N 35°36' E 139°46'0 0.0
2017-May-14 03:28N 35°36' E 139°46'0 0.0
2017-May-14 02:58N 35°36' E 139°46'0 0.0
2017-May-14 02:28N 35°36' E 139°46'0 0.0
2017-May-14 01:58N 35°36' E 139°46'0 0.0
2017-May-14 01:28N 35°36' E 139°46'0 0.0
2017-May-14 00:58N 35°36' E 139°46'0 0.0
2017-May-14 00:25N 35°36' E 139°46'0 0.0
2017-May-13 23:58N 35°36' E 139°46'0 0.0
2017-May-13 23:28N 35°36' E 139°46'0 0.0
2017-May-13 23:00N 35°36' E 139°46'1 1.4
2017-May-13 22:30N 35°35' E 139°47'4 7.3
2017-May-13 22:00N 35°33' E 139°51'510.8
2017-May-13 21:30N 35°28' E 139°50'612.9
2017-May-13 21:00N 35°23' E 139°46'611.1
2017-May-13 20:30N 35°17' E 139°45'611.9
2017-May-13 20:00N 35°11' E 139°47'5 9.9
2017-May-13 19:30N 35°06' E 139°46'611.6
2017-May-13 19:00N 35°02' E 139°42'611.7
2017-May-13 18:30N 34°56' E 139°40'510.6
2017-May-13 18:00N 34°52' E 139°44'712.2
2017-May-13 17:26N 34°49' E 139°51'3218.7
2017-May-13 15:43N 35°04' E 140°26'  
Track history (hours):
 
Tides and Currents Weather Stations Pressure Air Temp Water Temp Dewpoint Dewpoint Depression Visibility Wind Speed Wind Dir Waves Ship Positions

Nyk Constellation

Last reported at 2017-May-20 18:46 UTC. Time now 2017-May-24 15:39 UTC.
Position N 36°31' E 141°17'.

Length 294 m; draft 11.2 m.

Type: Cargo ship. MMSI: 538002992.

Date/timePositionNaut miles runAvg speedWind from/ knotsBaromVisibWave heightAir tempDewpointWater temp
2017-May-20 18:46N 36°31' E 141°17'621.4
2017-May-20 18:30N 36°26' E 141°17'1121.1
2017-May-20 18:00N 36°15' E 141°16'3920.6
2017-May-20 16:07N 35°37' E 141°10'221.3
2017-May-20 16:00N 35°35' E 141°08'1821.4
2017-May-20 15:10N 35°22' E 140°53'421.6
2017-May-20 15:00N 35°19' E 140°50'1121.6
2017-May-20 14:30N 35°12' E 140°40'2421.4
2017-May-20 13:23N 34°55' E 140°20'921.5
2017-May-20 12:57N 34°51' E 140°10'1621.8
2017-May-20 12:13N 34°48' E 139°50'721.1
2017-May-20 11:54N 34°51' E 139°43'1020.6
2017-May-20 11:25N 35°01' E 139°44'916.8
2017-May-20 10:54N 35°10' E 139°46'410.3
2017-May-20 10:30N 35°14' E 139°46'612.2
2017-May-20 10:01N 35°19' E 139°43'612.0
2017-May-20 09:30N 35°25' E 139°44'815.2
2017-May-20 09:01N 35°30' E 139°51'611.2
2017-May-20 08:31N 35°35' E 139°48'1 2.5
2017-May-20 07:59N 35°36' E 139°46'0 0.0
2017-May-20 07:29N 35°36' E 139°46'0 0.0
2017-May-20 06:59N 35°36' E 139°46'0 0.0
2017-May-20 06:29N 35°36' E 139°46'0 0.0
2017-May-20 05:59N 35°36' E 139°46'0 0.0
2017-May-20 05:29N 35°36' E 139°46'0 0.0
2017-May-20 04:56N 35°36' E 139°46'0 0.0
2017-May-20 04:26N 35°36' E 139°46'0 0.0
2017-May-20 03:59N 35°36' E 139°46'0 0.0
2017-May-20 03:29N 35°36' E 139°46'0 0.0
2017-May-20 02:59N 35°36' E 139°46'0 0.0
2017-May-20 02:29N 35°36' E 139°46'0 0.0
2017-May-20 01:59N 35°36' E 139°46'0 0.0
2017-May-20 01:29N 35°36' E 139°46'0 0.0
2017-May-20 00:59N 35°36' E 139°46'0 0.0
2017-May-20 00:26N 35°36' E 139°46'0 0.0
2017-May-19 23:56N 35°36' E 139°46'0 0.0
2017-May-19 23:29N 35°36' E 139°46'0 0.6
2017-May-19 23:00N 35°36' E 139°47'4 7.3
2017-May-19 22:30N 35°33' E 139°50'510.0
2017-May-19 22:00N 35°28' E 139°51'612.7
2017-May-19 21:30N 35°24' E 139°46'612.0
2017-May-19 21:00N 35°18' E 139°45'612.4
2017-May-19 20:30N 35°12' E 139°47'612.3
2017-May-19 20:00N 35°05' E 139°46'613.0
2017-May-19 19:31N 35°00' E 139°41'612.2
2017-May-19 19:00N 34°57' E 139°34'239 6.0
2017-May-18 02:58N 33°49' E 134°57'4 8.8
2017-May-18 02:29N 33°53' E 134°57'5 8.6
2017-May-18 01:55N 33°58' E 134°57'4 8.6
2017-May-18 01:30N 34°01' E 134°57'4 8.5
2017-May-18 00:59N 34°06' E 134°57'4 9.0
2017-May-18 00:30N 34°10' E 134°58'611.1
2017-May-18 00:00N 34°16' E 134°59'1018.0
2017-May-17 23:28N 34°24' E 135°04'919.2
2017-May-17 23:01N 34°31' E 135°11'815.2
2017-May-17 22:31N 34°36' E 135°18'5 9.4
2017-May-17 22:00N 34°41' E 135°18'0 0.6
2017-May-17 21:29N 34°41' E 135°17'0 0.0
2017-May-17 20:59N 34°41' E 135°17'0 0.0
2017-May-17 20:29N 34°41' E 135°17'0 0.0
2017-May-17 19:59N 34°41' E 135°17'0 0.0
2017-May-17 19:29N 34°41' E 135°17'0 0.0
2017-May-17 18:59N 34°41' E 135°17'0 0.0
2017-May-17 18:23N 34°41' E 135°17'0 0.0
2017-May-17 17:59N 34°41' E 135°17'0 0.0
2017-May-17 17:29N 34°41' E 135°17'0 0.0
2017-May-17 16:59N 34°41' E 135°17'0 0.0
2017-May-17 16:29N 34°41' E 135°17'0 0.0
2017-May-17 15:59N 34°41' E 135°17'0 0.0
2017-May-17 15:29N 34°41' E 135°17'0 0.0
2017-May-17 14:59N 34°41' E 135°17'0 0.0
2017-May-17 14:29N 34°41' E 135°17'0 0.0
2017-May-17 13:29N 34°41' E 135°17'0 0.0
2017-May-17 12:59N 34°41' E 135°17'0 0.0
2017-May-17 12:29N 34°41' E 135°17'0 0.0
2017-May-17 11:59N 34°41' E 135°17'0 0.0
2017-May-17 11:29N 34°41' E 135°17'0 0.0
2017-May-17 10:59N 34°41' E 135°17'0 0.0
2017-May-17 10:17N 34°41' E 135°17'0 0.0
2017-May-17 09:53N 34°41' E 135°17'0 0.0
2017-May-17 09:29N 34°41' E 135°17'0 0.0
2017-May-17 08:53N 34°41' E 135°17'0 0.0
2017-May-17 08:29N 34°41' E 135°17'0 0.0
2017-May-17 07:53N 34°41' E 135°17'0 0.0
2017-May-17 07:23N 34°41' E 135°17'0 0.0
2017-May-17 06:53N 34°41' E 135°17'0 0.0
2017-May-17 06:29N 34°41' E 135°17'0 0.0
2017-May-17 05:59N 34°41' E 135°17'0 0.0
2017-May-17 05:23N 34°41' E 135°17'0 0.0
2017-May-17 04:59N 34°41' E 135°17'0 0.0
2017-May-17 04:29N 34°41' E 135°17'0 0.0
2017-May-17 03:53N 34°41' E 135°17'0 0.0
2017-May-17 03:29N 34°41' E 135°17'0 0.0
2017-May-17 02:53N 34°41' E 135°17'0 0.0
2017-May-17 02:29N 34°41' E 135°17'0 0.0
2017-May-17 01:59N 34°41' E 135°17'0 0.0
2017-May-17 01:29N 34°41' E 135°17'0 0.0
2017-May-17 00:59N 34°41' E 135°17'0 0.0
2017-May-17 00:29N 34°41' E 135°17'0 0.0
2017-May-16 23:59N 34°41' E 135°17'0 0.0
2017-May-16 23:29N 34°41' E 135°17'0 0.0
2017-May-16 22:59N 34°41' E 135°17'0 0.0
2017-May-16 22:29N 34°41' E 135°17'0 0.0
2017-May-16 21:53N 34°41' E 135°17'0 0.0
2017-May-16 21:29N 34°41' E 135°17'0 0.0
2017-May-16 20:47N 34°41' E 135°17'0 0.0
2017-May-16 20:29N 34°41' E 135°17'0 0.0
2017-May-16 19:59N 34°41' E 135°17'0 0.0
2017-May-16 19:29N 34°41' E 135°17'0 0.0
2017-May-16 18:47N 34°41' E 135°17'0 0.0
2017-May-16 18:29N 34°41' E 135°17'0 0.0
2017-May-16 17:59N 34°41' E 135°17'0 0.0
2017-May-16 17:29N 34°41' E 135°17'0 0.0
2017-May-16 16:59N 34°41' E 135°17'0 0.0
2017-May-16 16:29N 34°41' E 135°17'0 0.0
2017-May-16 15:59N 34°41' E 135°17'0 0.0
2017-May-16 15:29N 34°41' E 135°17'0 0.0
2017-May-16 14:59N 34°41' E 135°17'0 0.0
2017-May-16 14:29N 34°41' E 135°17'0 0.0
2017-May-16 13:29N 34°41' E 135°17'0 0.0
2017-May-16 12:59N 34°41' E 135°17'0 0.0
2017-May-16 12:23N 34°41' E 135°17'0 0.0
2017-May-16 11:53N 34°41' E 135°17'0 0.0
2017-May-16 11:29N 34°41' E 135°17'0 0.0
2017-May-16 10:47N 34°41' E 135°17'0 0.0
2017-May-16 10:29N 34°41' E 135°17'0 0.0
2017-May-16 09:59N 34°41' E 135°17'0 0.0
2017-May-16 09:29N 34°41' E 135°17'0 0.0
2017-May-16 08:59N 34°41' E 135°17'0 0.0
2017-May-16 08:29N 34°41' E 135°17'0 0.0
2017-May-16 07:53N 34°41' E 135°17'0 0.0
2017-May-16 07:29N 34°41' E 135°17'0 0.0
2017-May-16 06:59N 34°41' E 135°17'0 0.0
2017-May-16 06:23N 34°41' E 135°17'0 0.0
2017-May-16 05:53N 34°41' E 135°17'0 0.0
2017-May-16 05:23N 34°41' E 135°17'0 0.0
2017-May-16 04:59N 34°41' E 135°17'0 0.0
2017-May-16 04:29N 34°41' E 135°17'0 0.0
2017-May-16 03:59N 34°41' E 135°17'0 0.0
2017-May-16 03:29N 34°41' E 135°17'0 0.0
2017-May-16 02:59N 34°41' E 135°17'0 0.0
2017-May-16 02:29N 34°41' E 135°17'0 0.0
2017-May-16 01:53N 34°41' E 135°17'0 0.0
2017-May-16 01:29N 34°41' E 135°17'0 0.0
2017-May-16 00:59N 34°41' E 135°17'0 0.1
2017-May-16 00:27N 34°41' E 135°17'2 4.4
2017-May-16 00:00N 34°39' E 135°18'612.6
2017-May-15 23:30N 34°34' E 135°15'917.9
2017-May-15 23:01N 34°27' E 135°08'917.9
2017-May-15 22:30N 34°20' E 135°01'715.0
2017-May-15 22:00N 34°13' E 134°59'510.5
2017-May-15 21:30N 34°07' E 134°59'510.3
2017-May-15 21:00N 34°02' E 134°58'221 6.6
2017-May-14 11:19N 34°53' E 139°19'619.1
2017-May-14 11:00N 34°57' E 139°26'918.7
2017-May-14 10:30N 35°01' E 139°36'917.6
2017-May-14 10:00N 35°07' E 139°44'612.3
2017-May-14 09:31N 35°13' E 139°46'610.9
2017-May-14 09:00N 35°18' E 139°44'612.8
2017-May-14 08:30N 35°24' E 139°43'816.3
2017-May-14 08:00N 35°30' E 139°51'611.6
2017-May-14 07:30N 35°35' E 139°48'1 2.6
2017-May-14 06:58N 35°36' E 139°46'0 0.0
2017-May-14 06:22N 35°36' E 139°46'0 0.0
2017-May-14 05:55N 35°36' E 139°46'0 0.0
2017-May-14 05:28N 35°36' E 139°46'0 0.0
2017-May-14 04:58N 35°36' E 139°46'0 0.0
2017-May-14 04:25N 35°36' E 139°46'0 0.0
2017-May-14 03:52N 35°36' E 139°46'0 0.0
2017-May-14 03:28N 35°36' E 139°46'0 0.0
2017-May-14 02:58N 35°36' E 139°46'0 0.0
2017-May-14 02:28N 35°36' E 139°46'0 0.0
2017-May-14 01:58N 35°36' E 139°46'0 0.0
2017-May-14 01:28N 35°36' E 139°46'0 0.0
2017-May-14 00:58N 35°36' E 139°46'0 0.0
2017-May-14 00:25N 35°36' E 139°46'0 0.0
2017-May-13 23:58N 35°36' E 139°46'0 0.0
2017-May-13 23:28N 35°36' E 139°46'0 0.0
2017-May-13 23:00N 35°36' E 139°46'1 1.4
2017-May-13 22:30N 35°35' E 139°47'4 7.3
2017-May-13 22:00N 35°33' E 139°51'510.8
2017-May-13 21:30N 35°28' E 139°50'612.9
2017-May-13 21:00N 35°23' E 139°46'611.1
2017-May-13 20:30N 35°17' E 139°45'611.9
2017-May-13 20:00N 35°11' E 139°47'5 9.9
2017-May-13 19:30N 35°06' E 139°46'611.6
2017-May-13 19:00N 35°02' E 139°42'611.7
2017-May-13 18:30N 34°56' E 139°40'510.6
2017-May-13 18:00N 34°52' E 139°44'712.2
2017-May-13 17:26N 34°49' E 139°51'3218.7
2017-May-13 15:43N 35°04' E 140°26'  

Dump ship's entire track history